Time,TemperatureF,DewpointF,PressureIn,WindDirection,WindDirectionDegrees,WindSpeedMPH,WindSpeedGustMPH,Humidity,HourlyPrecipIn,Conditions,Clouds,dailyrainin,SoftwareType,DateUTC
2013-02-02 00:00:00,27.4,22.9,30.19,West,267,1.0,3.0,83,0.00,,,0.00,VWS V14.00,2013-02-02 06:00:00,
2013-02-02 00:05:00,27.2,22.7,30.19,West,265,2.0,2.0,83,0.00,,,0.00,VWS V14.00,2013-02-02 06:05:00,
2013-02-02 00:10:00,27.5,23.3,30.19,West,273,0.0,3.0,84,0.00,,,0.00,VWS V14.00,2013-02-02 06:10:00,
2013-02-02 00:15:00,27.4,23.2,30.19,West,272,0.0,3.0,84,0.00,,,0.00,VWS V14.00,2013-02-02 06:15:00,
2013-02-02 00:20:00,27.2,22.7,30.19,West,273,0.0,3.0,83,0.00,,,0.00,VWS V14.00,2013-02-02 06:20:00,
2013-02-02 00:25:00,27.3,23.1,30.19,West,273,0.0,3.0,84,0.00,,,0.00,VWS V14.00,2013-02-02 06:25:00,
2013-02-02 00:30:00,27.7,23.8,30.19,West,275,0.0,3.0,85,0.00,,,0.00,VWS V14.00,2013-02-02 06:30:00,
2013-02-02 00:35:00,27.7,23.8,30.19,West,275,0.0,0.0,85,0.00,,,0.00,VWS V14.00,2013-02-02 06:35:00,
2013-02-02 00:40:00,27.5,23.6,30.18,West,275,0.0,0.0,85,0.00,,,0.00,VWS V14.00,2013-02-02 06:40:00,
2013-02-02 00:45:00,27.5,23.6,30.18,West,275,0.0,0.0,85,0.00,,,0.00,VWS V14.00,2013-02-02 06:45:00,
2013-02-02 00:50:00,27.6,23.7,30.18,West,275,0.0,0.0,85,0.00,,,0.00,VWS V14.00,2013-02-02 06:50:00,
2013-02-02 00:55:00,27.5,23.6,30.18,West,275,0.0,0.0,85,0.00,,,0.00,VWS V14.00,2013-02-02 06:55:00,
2013-02-02 01:00:00,27.6,24.0,30.19,West,281,0.0,0.0,86,0.00,,,0.00,VWS V14.00,2013-02-02 07:00:00,
2013-02-02 01:05:00,28.5,25.1,30.18,WNW,289,0.0,0.0,87,0.00,,,0.00,VWS V14.00,2013-02-02 07:05:00,
2013-02-02 01:10:00,28.3,24.9,30.18,WNW,290,0.0,2.0,87,0.00,,,0.00,VWS V14.00,2013-02-02 07:10:00,
2013-02-02 01:15:00,27.9,24.3,30.18,WNW,288,0.0,2.0,86,0.00,,,0.00,VWS V14.00,2013-02-02 07:15:00,
2013-02-02 01:20:00,28.1,24.7,30.18,WNW,290,0.0,2.0,87,0.00,,,0.00,VWS V14.00,2013-02-02 07:20:00,
2013-02-02 01:25:00,28.3,24.9,30.18,WNW,302,0.0,3.0,87,0.00,,,0.00,VWS V14.00,2013-02-02 07:25:00,
2013-02-02 01:30:00,27.9,24.5,30.18,WNW,285,2.0,4.0,87,0.00,,,0.00,VWS V14.00,2013-02-02 07:30:00,
2013-02-02 01:35:00,27.9,24.8,30.18,WNW,289,0.0,0.0,88,0.00,,,0.00,VWS V14.00,2013-02-02 07:35:00,
2013-02-02 01:40:00,28.8,26.0,30.19,West,275,0.0,2.0,89,0.00,,,0.00,VWS V14.00,2013-02-02 07:40:00,
2013-02-02 01:45:00,28.4,25.3,30.19,WNW,291,1.0,3.0,88,0.00,,,0.00,VWS V14.00,2013-02-02 07:45:00,
2013-02-02 01:50:00,28.0,24.6,30.19,WNW,291,0.0,3.0,87,0.00,,,0.00,VWS V14.00,2013-02-02 07:50:00,
2013-02-02 01:55:00,28.1,25.0,30.19,WNW,291,1.0,3.0,88,0.00,,,0.00,VWS V14.00,2013-02-02 07:55:00,
2013-02-02 02:00:00,28.0,24.9,30.19,WNW,291,0.0,3.0,88,0.00,,,0.00,VWS V14.00,2013-02-02 08:00:00,
2013-02-02 02:05:00,27.4,24.3,30.20,WNW,291,0.0,0.0,88,0.00,,,0.00,VWS V14.00,2013-02-02 08:05:00,
2013-02-02 02:10:00,27.1,24.0,30.20,WNW,291,0.0,0.0,88,0.00,,,0.00,VWS V14.00,2013-02-02 08:10:00,
2013-02-02 02:15:00,27.1,24.0,30.20,WNW,291,0.0,0.0,88,0.00,,,0.00,VWS V14.00,2013-02-02 08:15:00,
2013-02-02 02:20:00,27.0,23.9,30.20,WNW,291,0.0,0.0,88,0.00,,,0.00,VWS V14.00,2013-02-02 08:20:00,
2013-02-02 02:25:00,26.7,23.6,30.20,WNW,291,0.0,0.0,88,0.00,,,0.00,VWS V14.00,2013-02-02 08:25:00,
2013-02-02 02:30:00,27.0,24.2,30.21,WNW,291,0.0,2.0,89,0.00,,,0.00,VWS V14.00,2013-02-02 08:30:00,
2013-02-02 02:35:00,27.1,24.3,30.21,WNW,291,0.0,0.0,89,0.00,,,0.00,VWS V14.00,2013-02-02 08:35:00,
2013-02-02 02:40:00,27.0,24.2,30.21,WNW,291,0.0,1.0,89,0.00,,,0.00,VWS V14.00,2013-02-02 08:40:00,
2013-02-02 02:45:00,27.2,24.4,30.21,WNW,291,2.0,2.0,89,0.00,,,0.00,VWS V14.00,2013-02-02 08:45:00,
2013-02-02 02:50:00,27.4,24.6,30.21,WNW,291,3.0,3.0,89,0.00,,,0.00,VWS V14.00,2013-02-02 08:50:00,
2013-02-02 02:55:00,27.3,24.5,30.21,WNW,291,0.0,3.0,89,0.00,,,0.00,VWS V14.00,2013-02-02 08:55:00,
2013-02-02 03:00:00,27.3,24.5,30.21,WNW,291,0.0,3.0,89,0.00,,,0.00,VWS V14.00,2013-02-02 09:00:00,
2013-02-02 03:05:00,27.3,24.5,30.21,WNW,291,0.0,0.0,89,0.00,,,0.00,VWS V14.00,2013-02-02 09:05:00,
2013-02-02 03:10:00,27.2,24.4,30.21,WNW,291,0.0,0.0,89,0.00,,,0.00,VWS V14.00,2013-02-02 09:10:00,
2013-02-02 03:15:00,27.1,24.0,30.21,WNW,291,0.0,0.0,88,0.00,,,0.00,VWS V14.00,2013-02-02 09:15:00,
2013-02-02 03:20:00,27.2,24.4,30.21,WNW,291,0.0,0.0,89,0.00,,,0.00,VWS V14.00,2013-02-02 09:20:00,
2013-02-02 03:25:00,28.1,25.5,30.21,WNW,291,0.0,3.0,90,0.00,,,0.00,VWS V14.00,2013-02-02 09:25:00,
2013-02-02 03:30:00,28.3,25.5,30.21,WNW,291,0.0,3.0,89,0.00,,,0.00,VWS V14.00,2013-02-02 09:30:00,
2013-02-02 03:35:00,28.2,25.4,30.20,WNW,291,0.0,0.0,89,0.00,,,0.00,VWS V14.00,2013-02-02 09:35:00,
2013-02-02 03:40:00,28.1,25.3,30.20,WNW,291,0.0,0.0,89,0.00,,,0.00,VWS V14.00,2013-02-02 09:40:00,
2013-02-02 03:45:00,28.1,25.3,30.20,WNW,291,0.0,0.0,89,0.00,,,0.00,VWS V14.00,2013-02-02 09:45:00,
2013-02-02 03:50:00,28.0,24.9,30.20,WNW,291,0.0,0.0,88,0.00,,,0.00,VWS V14.00,2013-02-02 09:50:00,
2013-02-02 03:55:00,27.9,24.8,30.20,WNW,291,0.0,0.0,88,0.00,,,0.00,VWS V14.00,2013-02-02 09:55:00,
2013-02-02 04:00:00,27.8,24.7,30.20,WNW,291,0.0,0.0,88,0.00,,,0.00,VWS V14.00,2013-02-02 10:00:00,
2013-02-02 04:05:00,27.8,24.7,30.20,WNW,291,0.0,0.0,88,0.00,,,0.00,VWS V14.00,2013-02-02 10:05:00,
2013-02-02 04:10:00,27.7,24.6,30.20,WNW,291,0.0,0.0,88,0.00,,,0.00,VWS V14.00,2013-02-02 10:10:00,
2013-02-02 04:15:00,27.8,24.4,30.20,WNW,291,0.0,0.0,87,0.00,,,0.00,VWS V14.00,2013-02-02 10:15:00,
2013-02-02 04:20:00,27.9,24.8,30.19,WNW,291,0.0,0.0,88,0.00,,,0.00,VWS V14.00,2013-02-02 10:20:00,
2013-02-02 04:25:00,28.0,24.6,30.20,WNW,291,0.0,0.0,87,0.00,,,0.00,VWS V14.00,2013-02-02 10:25:00,
2013-02-02 04:30:00,27.9,24.5,30.20,WNW,291,2.0,3.0,87,0.00,,,0.00,VWS V14.00,2013-02-02 10:30:00,
2013-02-02 04:35:00,27.9,24.5,30.20,WNW,291,0.0,2.0,87,0.00,,,0.00,VWS V14.00,2013-02-02 10:35:00,
2013-02-02 04:40:00,28.4,25.3,30.20,WNW,291,0.0,2.0,88,0.00,,,0.00,VWS V14.00,2013-02-02 10:40:00,
2013-02-02 04:45:00,28.5,25.4,30.21,WNW,291,1.0,2.0,88,0.00,,,0.00,VWS V14.00,2013-02-02 10:45:00,
2013-02-02 04:50:00,28.3,24.9,30.21,WNW,291,2.0,2.0,87,0.00,,,0.00,VWS V14.00,2013-02-02 10:50:00,
2013-02-02 04:55:00,28.0,24.6,30.21,WNW,291,0.0,2.0,87,0.00,,,0.00,VWS V14.00,2013-02-02 10:55:00,
2013-02-02 05:00:00,27.9,24.5,30.21,WNW,291,0.0,2.0,87,0.00,,,0.00,VWS V14.00,2013-02-02 11:00:00,
2013-02-02 05:05:00,27.8,24.4,30.21,WNW,291,0.0,0.0,87,0.00,,,0.00,VWS V14.00,2013-02-02 11:05:00,
2013-02-02 05:10:00,27.6,24.2,30.21,WNW,291,0.0,0.0,87,0.00,,,0.00,VWS V14.00,2013-02-02 11:10:00,
2013-02-02 05:15:00,27.4,24.0,30.21,WNW,291,0.0,0.0,87,0.00,,,0.00,VWS V14.00,2013-02-02 11:15:00,
2013-02-02 05:20:00,27.3,24.0,30.21,WNW,291,0.0,0.0,87,0.00,,,0.00,VWS V14.00,2013-02-02 11:20:00,
2013-02-02 05:25:00,27.3,24.0,30.20,WNW,291,0.0,0.0,87,0.00,,,0.00,VWS V14.00,2013-02-02 11:25:00,
2013-02-02 05:30:00,27.3,24.0,30.21,WNW,291,0.0,0.0,87,0.00,,,0.00,VWS V14.00,2013-02-02 11:30:00,
2013-02-02 05:35:00,27.5,24.4,30.21,WNW,291,0.0,0.0,88,0.00,,,0.00,VWS V14.00,2013-02-02 11:35:00,
2013-02-02 05:40:00,27.6,24.2,30.21,WNW,291,0.0,0.0,87,0.00,,,0.00,VWS V14.00,2013-02-02 11:40:00,
2013-02-02 05:45:00,27.6,24.2,30.21,WNW,291,0.0,0.0,87,0.00,,,0.00,VWS V14.00,2013-02-02 11:45:00,
2013-02-02 05:50:00,27.5,24.1,30.21,WNW,291,0.0,0.0,87,0.00,,,0.00,VWS V14.00,2013-02-02 11:50:00,
2013-02-02 05:55:00,27.6,24.2,30.21,WNW,291,0.0,0.0,87,0.00,,,0.00,VWS V14.00,2013-02-02 11:55:00,
2013-02-02 06:00:00,27.6,24.2,30.21,WNW,291,0.0,0.0,87,0.00,,,0.00,VWS V14.00,2013-02-02 12:00:00,
2013-02-02 06:05:00,27.4,24.0,30.21,WNW,291,0.0,0.0,87,0.00,,,0.00,VWS V14.00,2013-02-02 12:05:00,
2013-02-02 06:10:00,27.3,23.7,30.21,WNW,291,0.0,0.0,86,0.00,,,0.00,VWS V14.00,2013-02-02 12:10:00,
2013-02-02 06:15:00,27.2,23.6,30.21,WNW,291,0.0,0.0,86,0.00,,,0.00,VWS V14.00,2013-02-02 12:15:00,
2013-02-02 06:20:00,27.2,23.9,30.21,WNW,291,0.0,0.0,87,0.00,,,0.00,VWS V14.00,2013-02-02 12:20:00,
2013-02-02 06:25:00,27.2,23.9,30.21,WNW,291,0.0,0.0,87,0.00,,,0.00,VWS V14.00,2013-02-02 12:25:00,
2013-02-02 06:30:00,27.2,23.9,30.21,WNW,291,0.0,0.0,87,0.00,,,0.00,VWS V14.00,2013-02-02 12:30:00,
2013-02-02 06:35:00,27.2,23.9,30.21,WNW,291,0.0,0.0,87,0.00,,,0.00,VWS V14.00,2013-02-02 12:35:00,
2013-02-02 06:40:00,27.3,24.0,30.21,WNW,291,0.0,0.0,87,0.00,,,0.00,VWS V14.00,2013-02-02 12:40:00,
2013-02-02 06:45:00,27.4,24.0,30.21,WNW,291,0.0,0.0,87,0.00,,,0.00,VWS V14.00,2013-02-02 12:45:00,
2013-02-02 06:50:00,27.4,24.0,30.21,WNW,291,0.0,0.0,87,0.00,,,0.00,VWS V14.00,2013-02-02 12:50:00,
2013-02-02 06:55:00,27.4,24.3,30.22,WNW,291,0.0,0.0,88,0.00,,,0.00,VWS V14.00,2013-02-02 12:55:00,
2013-02-02 07:00:00,27.5,24.4,30.22,WNW,291,0.0,1.0,88,0.00,,,0.00,VWS V14.00,2013-02-02 13:00:00,
2013-02-02 07:05:00,27.5,24.4,30.22,WNW,292,0.0,0.0,88,0.00,,,0.00,VWS V14.00,2013-02-02 13:05:00,
2013-02-02 07:10:00,27.6,24.5,30.22,WNW,291,0.0,0.0,88,0.00,,,0.00,VWS V14.00,2013-02-02 13:10:00,
2013-02-02 07:14:00,27.7,24.6,30.22,WNW,291,0.0,0.0,88,0.00,,,0.00,VWS V14.00,2013-02-02 13:14:00,
2013-02-02 07:19:00,27.7,24.6,30.21,WNW,291,0.0,0.0,88,0.00,,,0.00,VWS V14.00,2013-02-02 13:19:00,
2013-02-02 07:24:00,27.6,24.5,30.22,WNW,291,0.0,0.0,88,0.00,,,0.00,VWS V14.00,2013-02-02 13:24:00,
2013-02-02 07:29:00,27.6,24.5,30.22,WNW,291,0.0,0.0,88,0.00,,,0.00,VWS V14.00,2013-02-02 13:29:00,
2013-02-02 07:34:00,27.5,24.4,30.23,WNW,291,0.0,0.0,88,0.00,,,0.00,VWS V14.00,2013-02-02 13:34:00,
2013-02-02 07:39:00,27.4,24.3,30.23,WNW,291,0.0,0.0,88,0.00,,,0.00,VWS V14.00,2013-02-02 13:39:00,
2013-02-02 07:44:00,27.3,24.2,30.23,WNW,291,0.0,0.0,88,0.00,,,0.00,VWS V14.00,2013-02-02 13:44:00,
2013-02-02 07:49:00,27.4,24.3,30.24,WNW,296,0.0,2.0,88,0.00,,,0.00,VWS V14.00,2013-02-02 13:49:00,
2013-02-02 07:54:00,27.4,24.3,30.24,NW,313,0.0,2.0,88,0.00,,,0.00,VWS V14.00,2013-02-02 13:54:00,
2013-02-02 07:59:00,27.5,24.4,30.24,NW,313,0.0,2.0,88,0.00,,,0.00,VWS V14.00,2013-02-02 13:59:00,
2013-02-02 08:04:00,27.6,24.5,30.24,NW,313,0.0,2.0,88,0.00,,,0.00,VWS V14.00,2013-02-02 14:04:00,
2013-02-02 08:09:00,27.7,24.6,30.24,NW,313,0.0,3.0,88,0.00,,,0.00,VWS V14.00,2013-02-02 14:09:00,
2013-02-02 08:14:00,27.8,24.7,30.24,NW,313,0.0,3.0,88,0.00,,,0.00,VWS V14.00,2013-02-02 14:14:00,
2013-02-02 08:19:00,27.9,24.8,30.24,NNW,348,0.0,3.0,88,0.00,,,0.00,VWS V14.00,2013-02-02 14:19:00,
2013-02-02 08:24:00,28.0,24.9,30.24,North,355,0.0,3.0,88,0.00,,,0.00,VWS V14.00,2013-02-02 14:24:00,
2013-02-02 08:29:00,28.0,24.6,30.24,North,355,0.0,3.0,87,0.00,,,0.00,VWS V14.00,2013-02-02 14:29:00,
2013-02-02 08:34:00,28.1,24.7,30.24,North,355,0.0,3.0,87,0.00,,,0.00,VWS V14.00,2013-02-02 14:34:00,
2013-02-02 08:39:00,28.2,24.8,30.24,North,355,0.0,0.0,87,0.00,,,0.00,VWS V14.00,2013-02-02 14:39:00,
2013-02-02 08:44:00,28.4,25.0,30.25,North,355,0.0,0.0,87,0.00,,,0.00,VWS V14.00,2013-02-02 14:44:00,
2013-02-02 08:49:00,28.6,25.0,30.25,North,355,0.0,0.0,86,0.00,,,0.00,VWS V14.00,2013-02-02 14:49:00,
2013-02-02 08:54:00,28.8,25.1,30.25,North,355,0.0,0.0,86,0.00,,,0.00,VWS V14.00,2013-02-02 14:54:00,
2013-02-02 08:59:00,29.0,25.1,30.25,North,355,0.0,0.0,85,0.00,,,0.00,VWS V14.00,2013-02-02 14:59:00,
2013-02-02 09:04:00,29.2,25.0,30.25,North,355,0.0,0.0,84,0.00,,,0.00,VWS V14.00,2013-02-02 15:04:00,
2013-02-02 09:09:00,29.3,25.1,30.25,North,355,1.0,1.0,84,0.00,,,0.00,VWS V14.00,2013-02-02 15:09:00,
2013-02-02 09:14:00,29.5,25.0,30.25,ENE,71,2.0,3.0,83,0.00,,,0.00,VWS V14.00,2013-02-02 15:14:00,
2013-02-02 09:19:00,29.7,24.9,30.25,NE,49,2.0,4.0,82,0.00,,,0.00,VWS V14.00,2013-02-02 15:19:00,
2013-02-02 09:24:00,29.8,25.0,30.24,East,83,0.0,4.0,82,0.00,,,0.00,VWS V14.00,2013-02-02 15:24:00,
2013-02-02 09:29:00,30.0,25.2,30.24,ENE,60,3.0,4.0,82,0.00,,,0.00,VWS V14.00,2013-02-02 15:29:00,
2013-02-02 09:34:00,30.1,25.0,30.24,ENE,75,4.0,4.0,81,0.00,,,0.00,VWS V14.00,2013-02-02 15:34:00,
2013-02-02 09:39:00,30.1,25.0,30.24,East,84,3.0,3.0,81,0.00,,,0.00,VWS V14.00,2013-02-02 15:39:00,
2013-02-02 09:44:00,30.3,25.2,30.24,ESE,104,1.0,4.0,81,0.00,,,0.00,VWS V14.00,2013-02-02 15:44:00,
2013-02-02 09:49:00,30.2,25.1,30.23,ESE,107,1.0,5.0,81,0.00,,,0.00,VWS V14.00,2013-02-02 15:49:00,
2013-02-02 09:54:00,30.1,24.7,30.23,ESE,107,1.0,5.0,80,0.00,,,0.00,VWS V14.00,2013-02-02 15:54:00,
2013-02-02 09:59:00,30.1,24.4,30.24,East,91,0.0,5.0,79,0.00,,,0.00,VWS V14.00,2013-02-02 15:59:00,
2013-02-02 10:04:00,30.2,24.2,30.23,ESE,106,3.0,5.0,78,0.00,,,0.00,VWS V14.00,2013-02-02 16:04:00,
2013-02-02 10:09:00,30.5,24.5,30.24,East,93,0.0,4.0,78,0.00,,,0.00,VWS V14.00,2013-02-02 16:09:00,
2013-02-02 10:14:00,30.7,24.7,30.24,East,95,0.0,4.0,78,0.00,,,0.00,VWS V14.00,2013-02-02 16:14:00,
2013-02-02 10:19:00,30.9,24.9,30.24,ESE,109,0.0,4.0,78,0.00,,,0.00,VWS V14.00,2013-02-02 16:19:00,
2013-02-02 10:24:00,31.1,25.0,30.24,ESE,113,0.0,4.0,78,0.00,,,0.00,VWS V14.00,2013-02-02 16:24:00,
2013-02-02 10:29:00,31.3,24.9,30.25,ESE,110,1.0,4.0,77,0.00,,,0.00,VWS V14.00,2013-02-02 16:29:00,
2013-02-02 10:34:00,31.5,25.4,30.25,ESE,110,0.0,4.0,78,0.00,,,0.00,VWS V14.00,2013-02-02 16:34:00,
2013-02-02 10:39:00,31.6,25.5,30.24,ESE,110,0.0,0.0,78,0.00,,,0.00,VWS V14.00,2013-02-02 16:39:00,
2013-02-02 10:44:00,31.7,25.3,30.24,ESE,115,0.0,0.0,77,0.00,,,0.00,VWS V14.00,2013-02-02 16:44:00,
2013-02-02 10:49:00,31.9,25.8,30.24,ESE,118,1.0,5.0,78,0.00,,,0.00,VWS V14.00,2013-02-02 16:49:00,
2013-02-02 10:54:00,32.0,25.6,30.25,East,91,0.0,5.0,77,0.00,,,0.00,VWS V14.00,2013-02-02 16:54:00,
2013-02-02 10:59:00,32.3,25.9,30.25,East,91,0.0,5.0,77,0.00,,,0.00,VWS V14.00,2013-02-02 16:59:00,
2013-02-02 11:04:00,32.7,26.0,30.25,East,91,0.0,5.0,76,0.00,,,0.00,VWS V14.00,2013-02-02 17:04:00,
2013-02-02 11:09:00,33.0,26.3,30.25,East,91,0.0,0.0,76,0.00,,,0.00,VWS V14.00,2013-02-02 17:09:00,
2013-02-02 11:14:00,33.1,26.4,30.25,ESE,110,2.0,3.0,76,0.00,,,0.00,VWS V14.00,2013-02-02 17:14:00,
2013-02-02 11:19:00,33.3,26.2,30.24,ESE,110,0.0,3.0,75,0.00,,,0.00,VWS V14.00,2013-02-02 17:19:00,
2013-02-02 11:24:00,33.3,26.2,30.25,SE,137,1.0,4.0,75,0.00,,,0.00,VWS V14.00,2013-02-02 17:24:00,
2013-02-02 11:29:00,33.3,26.2,30.25,SE,130,0.0,5.0,75,0.00,,,0.00,VWS V14.00,2013-02-02 17:29:00,
2013-02-02 11:34:00,33.4,26.3,30.24,SE,130,0.0,5.0,75,0.00,,,0.00,VWS V14.00,2013-02-02 17:34:00,
2013-02-02 11:39:00,33.7,26.6,30.24,SSE,161,0.0,2.0,75,0.00,,,0.00,VWS V14.00,2013-02-02 17:39:00,
2013-02-02 11:44:00,33.8,26.7,30.24,SE,129,0.0,4.0,75,0.00,,,0.00,VWS V14.00,2013-02-02 17:44:00,
2013-02-02 11:49:00,33.8,26.7,30.24,SSE,157,4.0,7.0,75,0.00,,,0.00,VWS V14.00,2013-02-02 17:49:00,
2013-02-02 11:54:00,33.8,26.7,30.24,SSE,160,4.0,7.0,75,0.00,,,0.00,VWS V14.00,2013-02-02 17:54:00,
2013-02-02 11:59:00,34.2,27.8,30.24,WSW,242,0.0,7.0,77,0.00,,,0.00,VWS V14.00,2013-02-02 17:59:00,
2013-02-02 12:04:00,34.4,27.3,30.24,SSW,194,0.0,7.0,75,0.00,,,0.00,VWS V14.00,2013-02-02 18:04:00,
2013-02-02 12:09:00,34.6,27.8,30.23,SW,216,6.0,6.0,76,0.00,,,0.00,VWS V14.00,2013-02-02 18:09:00,
2013-02-02 12:14:00,34.7,27.6,30.23,South,178,2.0,6.0,75,0.00,,,0.00,VWS V14.00,2013-02-02 18:14:00,
2013-02-02 12:19:00,34.7,27.9,30.23,SSE,167,0.0,6.0,76,0.00,,,0.00,VWS V14.00,2013-02-02 18:19:00,
2013-02-02 12:24:00,35.0,28.2,30.22,SSW,212,2.0,6.0,76,0.00,,,0.00,VWS V14.00,2013-02-02 18:24:00,
2013-02-02 12:29:00,35.3,28.8,30.22,SSE,166,1.0,6.0,77,0.00,,,0.00,VWS V14.00,2013-02-02 18:29:00,
2013-02-02 12:34:00,35.6,28.8,30.22,SSE,166,4.0,6.0,76,0.00,,,0.00,VWS V14.00,2013-02-02 18:34:00,
2013-02-02 12:39:00,35.7,29.2,30.21,SSE,155,0.0,5.0,77,0.00,,,0.00,VWS V14.00,2013-02-02 18:39:00,
2013-02-02 12:44:00,36.2,29.7,30.21,SW,214,1.0,5.0,77,0.00,,,0.00,VWS V14.00,2013-02-02 18:44:00,
2013-02-02 12:49:00,36.6,29.8,30.21,SSW,198,2.0,7.0,76,0.00,,,0.00,VWS V14.00,2013-02-02 18:49:00,
2013-02-02 12:54:00,36.6,30.1,30.21,SSE,166,4.0,7.0,77,0.00,,,0.00,VWS V14.00,2013-02-02 18:54:00,
2013-02-02 12:59:00,36.8,30.3,30.21,SW,219,3.0,7.0,77,0.00,,,0.00,VWS V14.00,2013-02-02 18:59:00,
2013-02-02 13:04:00,37.3,30.4,30.20,SSE,163,0.0,7.0,76,0.00,,,0.00,VWS V14.00,2013-02-02 19:04:00,
2013-02-02 13:08:00,37.4,30.9,30.19,South,190,4.0,4.0,77,0.00,,,0.00,VWS V14.00,2013-02-02 19:08:00,
2013-02-02 13:13:00,37.8,31.2,30.19,SSW,213,5.0,6.0,77,0.00,,,0.00,VWS V14.00,2013-02-02 19:13:00,
2013-02-02 13:18:00,38.2,31.6,30.19,SE,140,0.0,6.0,77,0.00,,,0.00,VWS V14.00,2013-02-02 19:18:00,
2013-02-02 13:23:00,38.7,32.1,30.19,SSW,208,2.0,6.0,77,0.00,,,0.00,VWS V14.00,2013-02-02 19:23:00,
2013-02-02 13:28:00,38.7,31.8,30.18,SW,220,0.0,9.0,76,0.00,,,0.00,VWS V14.00,2013-02-02 19:28:00,
2013-02-02 13:33:00,38.9,32.0,30.17,SSE,153,3.0,12.0,76,0.00,,,0.00,VWS V14.00,2013-02-02 19:33:00,
2013-02-02 13:38:00,38.9,32.3,30.17,South,172,4.0,10.0,77,0.00,,,0.00,VWS V14.00,2013-02-02 19:38:00,
2013-02-02 13:43:00,39.3,33.0,30.17,SE,126,1.0,10.0,78,0.00,,,0.00,VWS V14.00,2013-02-02 19:43:00,
2013-02-02 13:48:00,39.6,33.3,30.18,SSE,162,0.0,10.0,78,0.00,,,0.00,VWS V14.00,2013-02-02 19:48:00,
2013-02-02 13:53:00,40.2,33.6,30.17,South,176,3.0,10.0,77,0.00,,,0.00,VWS V14.00,2013-02-02 19:53:00,
2013-02-02 13:58:00,40.4,33.8,30.17,SSE,157,0.0,10.0,77,0.00,,,0.00,VWS V14.00,2013-02-02 19:58:00,
2013-02-02 14:03:00,40.6,34.0,30.16,SE,144,4.0,10.0,77,0.00,,,0.00,VWS V14.00,2013-02-02 20:03:00,
2013-02-02 14:08:00,40.9,34.6,30.16,SSE,151,0.0,7.0,78,0.00,,,0.00,VWS V14.00,2013-02-02 20:08:00,
2013-02-02 14:13:00,41.4,35.1,30.16,SE,146,0.0,10.0,78,0.00,,,0.00,VWS V14.00,2013-02-02 20:13:00,
2013-02-02 14:18:00,42.0,35.7,30.15,South,169,1.0,10.0,78,0.00,,,0.00,VWS V14.00,2013-02-02 20:18:00,
2013-02-02 14:23:00,42.9,36.2,30.15,SSE,153,3.0,10.0,77,0.00,,,0.00,VWS V14.00,2013-02-02 20:23:00,
2013-02-02 14:28:00,43.1,36.1,30.15,SSE,163,0.0,10.0,76,0.00,,,0.00,VWS V14.00,2013-02-02 20:28:00,
2013-02-02 14:33:00,43.3,36.6,30.15,SSE,164,0.0,10.0,77,0.00,,,0.00,VWS V14.00,2013-02-02 20:33:00,
2013-02-02 14:38:00,44.1,37.4,30.14,SSE,167,0.0,5.0,77,0.00,,,0.00,VWS V14.00,2013-02-02 20:38:00,
2013-02-02 14:43:00,44.7,37.6,30.13,South,177,0.0,5.0,76,0.00,,,0.00,VWS V14.00,2013-02-02 20:43:00,
2013-02-02 14:48:00,45.2,37.8,30.13,SSE,157,2.0,5.0,75,0.00,,,0.00,VWS V14.00,2013-02-02 20:48:00,
2013-02-02 14:53:00,46.3,38.5,30.13,South,173,6.0,7.0,74,0.00,,,0.00,VWS V14.00,2013-02-02 20:53:00,
2013-02-02 14:58:00,47.3,39.1,30.12,South,182,0.0,7.0,73,0.00,,,0.00,VWS V14.00,2013-02-02 20:58:00,
2013-02-02 15:03:00,48.1,38.8,30.13,WNW,290,3.0,7.0,70,0.00,,,0.00,VWS V14.00,2013-02-02 21:03:00,
2013-02-02 15:08:00,48.6,38.2,30.12,WSW,246,5.0,11.0,67,0.00,,,0.00,VWS V14.00,2013-02-02 21:08:00,
2013-02-02 15:13:00,49.1,38.6,30.12,West,270,9.0,13.0,67,0.00,,,0.00,VWS V14.00,2013-02-02 21:13:00,
2013-02-02 15:18:00,49.3,38.0,30.12,West,279,4.0,13.0,65,0.00,,,0.00,VWS V14.00,2013-02-02 21:18:00,
2013-02-02 15:23:00,49.5,38.2,30.12,SSW,211,3.0,13.0,65,0.00,,,0.00,VWS V14.00,2013-02-02 21:23:00,
2013-02-02 15:28:00,49.5,37.8,30.12,WSW,246,3.0,13.0,64,0.00,,,0.00,VWS V14.00,2013-02-02 21:28:00,
2013-02-02 15:33:00,49.4,37.3,30.11,West,281,4.0,13.0,63,0.00,,,0.00,VWS V14.00,2013-02-02 21:33:00,
2013-02-02 15:38:00,49.5,37.0,30.11,West,265,9.0,11.0,62,0.00,,,0.00,VWS V14.00,2013-02-02 21:38:00,
2013-02-02 15:43:00,49.9,37.4,30.11,WNW,284,1.0,11.0,62,0.00,,,0.00,VWS V14.00,2013-02-02 21:43:00,
2013-02-02 15:48:00,50.5,36.7,30.10,WSW,254,9.0,11.0,59,0.00,,,0.00,VWS V14.00,2013-02-02 21:48:00,
2013-02-02 15:53:00,50.7,36.9,30.10,West,276,2.0,11.0,59,0.00,,,0.00,VWS V14.00,2013-02-02 21:53:00,
2013-02-02 15:58:00,50.8,36.6,30.10,WNW,300,2.0,11.0,58,0.00,,,0.00,VWS V14.00,2013-02-02 21:58:00,
2013-02-02 16:03:00,50.8,35.7,30.10,West,277,4.0,12.0,56,0.00,,,0.00,VWS V14.00,2013-02-02 22:03:00,
2013-02-02 16:08:00,50.8,35.7,30.10,WNW,282,0.0,10.0,56,0.00,,,0.00,VWS V14.00,2013-02-02 22:08:00,
2013-02-02 16:13:00,50.8,35.2,30.10,WSW,247,5.0,10.0,55,0.00,,,0.00,VWS V14.00,2013-02-02 22:13:00,
2013-02-02 16:18:00,51.0,35.9,30.10,West,259,9.0,11.0,56,0.00,,,0.00,VWS V14.00,2013-02-02 22:18:00,
2013-02-02 16:23:00,50.9,35.3,30.10,West,268,0.0,11.0,55,0.00,,,0.00,VWS V14.00,2013-02-02 22:23:00,
2013-02-02 16:28:00,50.6,35.0,30.10,West,261,3.0,11.0,55,0.00,,,0.00,VWS V14.00,2013-02-02 22:28:00,
2013-02-02 16:33:00,50.3,34.8,30.10,WNW,284,0.0,11.0,55,0.00,,,0.00,VWS V14.00,2013-02-02 22:33:00,
2013-02-02 16:38:00,50.2,34.7,30.10,West,273,0.0,10.0,55,0.00,,,0.00,VWS V14.00,2013-02-02 22:38:00,
2013-02-02 16:43:00,49.9,34.4,30.10,West,281,4.0,10.0,55,0.00,,,0.00,VWS V14.00,2013-02-02 22:43:00,
2013-02-02 16:48:00,49.7,35.1,30.10,West,272,4.0,10.0,57,0.00,,,0.00,VWS V14.00,2013-02-02 22:48:00,
2013-02-02 16:53:00,49.9,37.0,30.10,West,275,1.0,10.0,61,0.00,,,0.00,VWS V14.00,2013-02-02 22:53:00,
2013-02-02 16:58:00,49.8,35.2,30.10,WNW,302,4.0,10.0,57,0.00,,,0.00,VWS V14.00,2013-02-02 22:58:00,
2013-02-02 17:03:00,49.5,34.9,30.10,WNW,293,2.0,10.0,57,0.00,,,0.00,VWS V14.00,2013-02-02 23:03:00,
2013-02-02 17:08:00,49.2,34.6,30.10,WNW,298,3.0,5.0,57,0.00,,,0.00,VWS V14.00,2013-02-02 23:08:00,
2013-02-02 17:13:00,48.8,34.7,30.10,WNW,290,2.0,6.0,58,0.00,,,0.00,VWS V14.00,2013-02-02 23:13:00,
2013-02-02 17:18:00,48.4,34.8,30.10,West,277,0.0,6.0,59,0.00,,,0.00,VWS V14.00,2013-02-02 23:18:00,
2013-02-02 17:23:00,48.1,34.5,30.10,WNW,294,7.0,7.0,59,0.00,,,0.00,VWS V14.00,2013-02-02 23:23:00,
2013-02-02 17:28:00,47.8,33.8,30.10,WNW,294,2.0,7.0,58,0.00,,,0.00,VWS V14.00,2013-02-02 23:28:00,
2013-02-02 17:33:00,47.6,36.4,30.10,West,274,7.0,9.0,65,0.00,,,0.00,VWS V14.00,2013-02-02 23:33:00,
2013-02-02 17:38:00,47.7,33.7,30.10,WNW,286,4.0,9.0,58,0.00,,,0.00,VWS V14.00,2013-02-02 23:38:00,
2013-02-02 17:43:00,47.5,33.0,30.10,WNW,290,13.0,13.0,57,0.00,,,0.00,VWS V14.00,2013-02-02 23:43:00,
2013-02-02 17:48:00,47.2,32.8,30.10,West,278,7.0,14.0,57,0.00,,,0.00,VWS V14.00,2013-02-02 23:48:00,
2013-02-02 17:53:00,47.1,32.2,30.10,WNW,292,3.0,14.0,56,0.00,,,0.00,VWS V14.00,2013-02-02 23:53:00,
2013-02-02 17:58:00,46.9,32.0,30.10,WNW,282,6.0,15.0,56,0.00,,,0.00,VWS V14.00,2013-02-02 23:58:00,
2013-02-02 18:03:00,46.7,31.4,30.10,West,281,8.0,15.0,55,0.00,,,0.00,VWS V14.00,2013-02-03 00:03:00,
2013-02-02 18:08:00,46.3,31.0,30.10,WNW,296,0.0,12.0,55,0.00,,,0.00,VWS V14.00,2013-02-03 00:08:00,
2013-02-02 18:13:00,46.0,30.8,30.11,WNW,303,8.0,12.0,55,0.00,,,0.00,VWS V14.00,2013-02-03 00:13:00,
2013-02-02 18:18:00,45.9,33.6,30.11,WNW,292,0.0,12.0,62,0.00,,,0.00,VWS V14.00,2013-02-03 00:18:00,
2013-02-02 18:23:00,45.7,30.9,30.11,WNW,290,1.0,12.0,56,0.00,,,0.00,VWS V14.00,2013-02-03 00:23:00,
2013-02-02 18:28:00,45.3,30.5,30.11,West,277,6.0,12.0,56,0.00,,,0.00,VWS V14.00,2013-02-03 00:28:00,
2013-02-02 18:33:00,45.0,30.3,30.11,WNW,298,0.0,12.0,56,0.00,,,0.00,VWS V14.00,2013-02-03 00:33:00,
2013-02-02 18:38:00,44.7,30.0,30.11,NW,315,3.0,11.0,56,0.00,,,0.00,VWS V14.00,2013-02-03 00:38:00,
2013-02-02 18:43:00,44.6,30.3,30.12,WNW,302,10.0,14.0,57,0.00,,,0.00,VWS V14.00,2013-02-03 00:43:00,
2013-02-02 18:47:00,44.6,30.3,30.12,WNW,294,6.0,14.0,57,0.00,,,0.00,VWS V14.00,2013-02-03 00:47:00,
2013-02-02 18:52:00,44.6,30.3,30.12,NW,311,4.0,14.0,57,0.00,,,0.00,VWS V14.00,2013-02-03 00:52:00,
2013-02-02 18:57:00,45.0,32.0,30.13,West,280,3.0,14.0,60,0.00,,,0.00,VWS V14.00,2013-02-03 00:57:00,
2013-02-02 19:02:00,45.1,30.8,30.14,WNW,287,1.0,15.0,57,0.00,,,0.00,VWS V14.00,2013-02-03 01:02:00,
2013-02-02 19:07:00,45.0,30.7,30.14,North,9,6.0,11.0,57,0.00,,,0.00,VWS V14.00,2013-02-03 01:07:00,
2013-02-02 19:12:00,45.0,30.7,30.14,NW,321,4.0,12.0,57,0.00,,,0.00,VWS V14.00,2013-02-03 01:12:00,
2013-02-02 19:17:00,44.9,30.6,30.14,WNW,294,4.0,15.0,57,0.00,,,0.00,VWS V14.00,2013-02-03 01:17:00,
2013-02-02 19:22:00,44.8,30.9,30.15,NW,311,1.0,15.0,58,0.00,,,0.00,VWS V14.00,2013-02-03 01:22:00,
2013-02-02 19:27:00,44.5,31.1,30.15,WNW,296,4.0,15.0,59,0.00,,,0.00,VWS V14.00,2013-02-03 01:27:00,
2013-02-02 19:32:00,44.1,31.1,30.15,WNW,283,3.0,15.0,60,0.00,,,0.00,VWS V14.00,2013-02-03 01:32:00,
2013-02-02 19:37:00,43.8,32.8,30.15,NW,319,0.0,10.0,65,0.00,,,0.00,VWS V14.00,2013-02-03 01:37:00,
2013-02-02 19:42:00,43.5,31.4,30.15,NW,305,2.0,10.0,62,0.00,,,0.00,VWS V14.00,2013-02-03 01:42:00,
2013-02-02 19:47:00,43.1,31.4,30.15,NNW,327,0.0,10.0,63,0.00,,,0.00,VWS V14.00,2013-02-03 01:47:00,
2013-02-02 19:52:00,42.7,31.4,30.15,NW,307,0.0,10.0,64,0.00,,,0.00,VWS V14.00,2013-02-03 01:52:00,
2013-02-02 19:57:00,42.3,31.0,30.15,NW,321,0.0,10.0,64,0.00,,,0.00,VWS V14.00,2013-02-03 01:57:00,
2013-02-02 20:02:00,41.9,31.0,30.15,NW,309,0.0,10.0,65,0.00,,,0.00,VWS V14.00,2013-02-03 02:02:00,
2013-02-02 20:07:00,41.6,30.7,30.15,WNW,293,0.0,1.0,65,0.00,,,0.00,VWS V14.00,2013-02-03 02:07:00,
2013-02-02 20:12:00,41.4,32.4,30.15,WNW,302,0.0,5.0,70,0.00,,,0.00,VWS V14.00,2013-02-03 02:12:00,
2013-02-02 20:17:00,41.5,32.5,30.15,NW,313,0.0,5.0,70,0.00,,,0.00,VWS V14.00,2013-02-03 02:17:00,
2013-02-02 20:22:00,41.2,31.1,30.15,WNW,295,0.0,7.0,67,0.00,,,0.00,VWS V14.00,2013-02-03 02:22:00,
2013-02-02 20:27:00,40.9,30.8,30.15,WNW,303,0.0,7.0,67,0.00,,,0.00,VWS V14.00,2013-02-03 02:27:00,
2013-02-02 20:32:00,40.6,30.9,30.16,WNW,295,3.0,7.0,68,0.00,,,0.00,VWS V14.00,2013-02-03 02:32:00,
2013-02-02 20:37:00,40.4,30.7,30.16,NW,313,0.0,3.0,68,0.00,,,0.00,VWS V14.00,2013-02-03 02:37:00,
2013-02-02 20:42:00,40.1,30.4,30.15,WNW,292,1.0,4.0,68,0.00,,,0.00,VWS V14.00,2013-02-03 02:42:00,
2013-02-02 20:47:00,39.9,30.6,30.15,WNW,291,0.0,6.0,69,0.00,,,0.00,VWS V14.00,2013-02-03 02:47:00,
2013-02-02 20:52:00,40.1,32.8,30.15,WNW,284,0.0,6.0,75,0.00,,,0.00,VWS V14.00,2013-02-03 02:52:00,
2013-02-02 20:57:00,39.9,30.9,30.16,West,281,2.0,6.0,70,0.00,,,0.00,VWS V14.00,2013-02-03 02:57:00,
2013-02-02 21:02:00,39.6,30.3,30.15,West,280,0.0,6.0,69,0.00,,,0.00,VWS V14.00,2013-02-03 03:02:00,
2013-02-02 21:07:00,39.2,30.2,30.15,West,279,0.0,0.0,70,0.00,,,0.00,VWS V14.00,2013-02-03 03:07:00,
2013-02-02 21:12:00,38.8,30.2,30.16,West,280,0.0,0.0,71,0.00,,,0.00,VWS V14.00,2013-02-03 03:12:00,
2013-02-02 21:17:00,38.4,29.8,30.16,WNW,296,0.0,5.0,71,0.00,,,0.00,VWS V14.00,2013-02-03 03:17:00,
2013-02-02 21:22:00,38.6,32.3,30.16,NW,309,0.0,5.0,78,0.00,,,0.00,VWS V14.00,2013-02-03 03:22:00,
2013-02-02 21:27:00,38.7,31.1,30.17,NW,321,5.0,6.0,74,0.00,,,0.00,VWS V14.00,2013-02-03 03:27:00,
2013-02-02 21:32:00,38.4,30.2,30.17,WNW,301,9.0,11.0,72,0.00,,,0.00,VWS V14.00,2013-02-03 03:32:00,
2013-02-02 21:37:00,38.6,30.4,30.17,WNW,298,8.0,13.0,72,0.00,,,0.00,VWS V14.00,2013-02-03 03:37:00,
2013-02-02 21:42:00,38.7,30.5,30.17,North,355,3.0,13.0,72,0.00,,,0.00,VWS V14.00,2013-02-03 03:42:00,
2013-02-02 21:47:00,39.0,30.8,30.17,NNW,348,1.0,13.0,72,0.00,,,0.00,VWS V14.00,2013-02-03 03:47:00,
2013-02-02 21:52:00,39.2,30.6,30.17,WNW,283,2.0,14.0,71,0.00,,,0.00,VWS V14.00,2013-02-03 03:52:00,
2013-02-02 21:57:00,39.5,31.9,30.17,WNW,295,9.0,16.0,74,0.00,,,0.00,VWS V14.00,2013-02-03 03:57:00,
2013-02-02 22:02:00,39.8,31.5,30.17,NW,312,13.0,16.0,72,0.00,,,0.00,VWS V14.00,2013-02-03 04:02:00,
2013-02-02 22:07:00,39.6,30.3,30.18,West,277,8.0,11.0,69,0.00,,,0.00,VWS V14.00,2013-02-03 04:07:00,
2013-02-02 22:12:00,39.4,30.1,30.18,WNW,288,5.0,15.0,69,0.00,,,0.00,VWS V14.00,2013-02-03 04:12:00,
2013-02-02 22:17:00,39.1,29.8,30.18,NW,321,9.0,15.0,69,0.00,,,0.00,VWS V14.00,2013-02-03 04:17:00,
2013-02-02 22:22:00,38.9,29.6,30.18,WNW,297,12.0,16.0,69,0.00,,,0.00,VWS V14.00,2013-02-03 04:22:00,
2013-02-02 22:27:00,39.1,30.2,30.18,West,268,3.0,16.0,70,0.00,,,0.00,VWS V14.00,2013-02-03 04:27:00,
2013-02-02 22:32:00,38.9,29.2,30.18,NW,314,4.0,18.0,68,0.00,,,0.00,VWS V14.00,2013-02-03 04:32:00,
2013-02-02 22:37:00,38.7,29.1,30.18,NW,304,3.0,12.0,68,0.00,,,0.00,VWS V14.00,2013-02-03 04:37:00,
2013-02-02 22:42:00,38.6,28.6,30.19,West,278,13.0,13.0,67,0.00,,,0.00,VWS V14.00,2013-02-03 04:42:00,
2013-02-02 22:47:00,38.5,29.6,30.19,West,276,12.0,15.0,70,0.00,,,0.00,VWS V14.00,2013-02-03 04:47:00,
2013-02-02 22:52:00,38.5,28.9,30.19,WNW,297,1.0,15.0,68,0.00,,,0.00,VWS V14.00,2013-02-03 04:52:00,
2013-02-02 22:57:00,38.2,28.2,30.19,NNW,347,13.0,15.0,67,0.00,,,0.00,VWS V14.00,2013-02-03 04:57:00,
2013-02-02 23:00:00,38.0,28.0,30.19,NNW,328,12.0,18.0,67,0.00,,,0.00,VWS V14.00,2013-02-03 05:00:00,
2013-02-02 23:05:00,37.9,27.9,30.19,WNW,283,6.0,6.0,67,0.00,,,0.00,VWS V14.00,2013-02-03 05:05:00,
2013-02-02 23:10:00,37.9,28.3,30.20,West,276,3.0,14.0,68,0.00,,,0.00,VWS V14.00,2013-02-03 05:10:00,
2013-02-02 23:15:00,38.0,28.8,30.20,WNW,298,12.0,14.0,69,0.00,,,0.00,VWS V14.00,2013-02-03 05:15:00,
2013-02-02 23:20:00,37.8,27.8,30.20,WSW,252,5.0,16.0,67,0.00,,,0.00,VWS V14.00,2013-02-03 05:20:00,
2013-02-02 23:25:00,37.5,27.5,30.20,WNW,295,2.0,16.0,67,0.00,,,0.00,VWS V14.00,2013-02-03 05:25:00,
2013-02-02 23:30:00,37.3,27.7,30.20,NW,309,4.0,16.0,68,0.00,,,0.00,VWS V14.00,2013-02-03 05:30:00,
2013-02-02 23:35:00,37.3,28.8,30.20,WNW,300,7.0,7.0,71,0.00,,,0.00,VWS V14.00,2013-02-03 05:35:00,
2013-02-02 23:40:00,37.4,28.2,30.21,West,277,3.0,19.0,69,0.00,,,0.00,VWS V14.00,2013-02-03 05:40:00,
2013-02-02 23:45:00,37.2,27.6,30.21,NW,306,10.0,19.0,68,0.00,,,0.00,VWS V14.00,2013-02-03 05:45:00,
2013-02-02 23:50:00,37.0,27.4,30.21,NW,324,2.0,19.0,68,0.00,,,0.00,VWS V14.00,2013-02-03 05:50:00,
2013-02-02 23:55:00,36.8,27.2,30.21,West,269,5.0,19.0,68,0.00,,,0.00,VWS V14.00,2013-02-03 05:55:00,